createdAt,value
2018-07-09T00:01:14.784Z,16.01
2018-07-09T00:03:49.274Z,16.02
2018-07-09T00:06:23.239Z,16.08
2018-07-09T00:08:57.232Z,16.14
2018-07-09T00:11:31.355Z,16.11
2018-07-09T00:14:05.389Z,16.12
2018-07-09T00:16:39.637Z,16.12
2018-07-09T00:19:13.955Z,16.15
2018-07-09T00:21:47.843Z,16.21
2018-07-09T00:24:21.974Z,16.22
2018-07-09T00:26:56.088Z,16.26
2018-07-09T00:29:30.353Z,16.32
2018-07-09T00:32:04.344Z,16.33
2018-07-09T00:34:38.637Z,16.23
2018-07-09T00:37:12.773Z,16.28
2018-07-09T00:39:46.952Z,16.20
2018-07-09T00:42:21.224Z,16.15
2018-07-09T00:44:55.904Z,16.03
2018-07-09T00:47:30.065Z,15.90
2018-07-09T00:50:04.231Z,15.72
2018-07-09T00:52:38.363Z,15.81
2018-07-09T00:55:12.433Z,15.88
2018-07-09T00:57:46.412Z,15.87
2018-07-09T01:00:20.369Z,15.88
2018-07-09T01:02:54.268Z,15.84
2018-07-09T01:05:28.541Z,15.74
2018-07-09T01:08:02.642Z,15.63
2018-07-09T01:10:47.649Z,15.58
2018-07-09T01:13:31.317Z,15.52
2018-07-09T01:16:05.771Z,15.45
2018-07-09T01:18:39.946Z,15.49
2018-07-09T01:21:14.830Z,15.45
2018-07-09T01:23:48.816Z,15.34
2018-07-09T01:26:22.871Z,15.39
2018-07-09T01:28:56.918Z,15.25
2018-07-09T01:31:36.139Z,15.28
2018-07-09T01:34:10.245Z,15.13
2018-07-09T01:36:44.165Z,15.16
2018-07-09T01:39:18.076Z,15.01
2018-07-09T01:41:52.176Z,15.10
2018-07-09T01:44:26.120Z,15.12
2018-07-09T01:47:00.174Z,14.95
2018-07-09T01:49:34.301Z,15.01
2018-07-09T01:52:08.279Z,15.04
2018-07-09T01:54:42.376Z,15.05
2018-07-09T01:57:16.316Z,15.23
2018-07-09T01:59:50.182Z,15.22
2018-07-09T02:02:24.335Z,15.16
2018-07-09T02:04:58.365Z,15.18
2018-07-09T02:07:32.495Z,15.22
2018-07-09T02:10:07.314Z,15.27
2018-07-09T02:12:41.528Z,15.13
2018-07-09T02:15:15.482Z,15.31
2018-07-09T02:17:49.700Z,15.23
2018-07-09T02:20:23.755Z,15.24
2018-07-09T02:22:58.013Z,15.11
2018-07-09T02:25:31.935Z,15.12
2018-07-09T02:28:06.082Z,15.07
2018-07-09T02:30:40.205Z,15.09
2018-07-09T02:33:14.265Z,15.11
2018-07-09T02:35:48.292Z,14.94
2018-07-09T02:38:22.445Z,14.91
2018-07-09T02:40:56.573Z,14.93
2018-07-09T02:43:30.625Z,14.87
2018-07-09T02:46:04.695Z,14.85
2018-07-09T02:48:38.774Z,14.53
2018-07-09T02:51:12.761Z,14.53
2018-07-09T02:53:46.898Z,14.55
2018-07-09T02:56:20.821Z,14.69
2018-07-09T02:58:54.979Z,14.66
2018-07-09T03:01:28.989Z,14.66
2018-07-09T03:04:03.036Z,14.81
2018-07-09T03:06:37.088Z,14.93
2018-07-09T03:09:11.452Z,14.98
2018-07-09T03:11:45.380Z,15.06
2018-07-09T03:14:19.423Z,15.23
2018-07-09T03:16:53.391Z,15.23
2018-07-09T03:19:27.363Z,15.18
2018-07-09T03:22:01.228Z,15.28
2018-07-09T03:24:35.305Z,15.42
2018-07-09T03:27:09.212Z,15.42
2018-07-09T03:29:43.235Z,15.53
2018-07-09T03:32:17.098Z,15.54
2018-07-09T03:34:51.082Z,15.53
2018-07-09T03:37:25.048Z,15.55
2018-07-09T03:39:59.111Z,15.51
2018-07-09T03:42:33.017Z,15.53
2018-07-09T03:45:07.139Z,15.44
2018-07-09T03:47:41.118Z,15.45
2018-07-09T03:50:15.331Z,15.34
2018-07-09T03:52:49.448Z,15.37
2018-07-09T03:55:23.884Z,15.30
2018-07-09T03:57:57.859Z,15.29
2018-07-09T04:00:31.930Z,15.30
2018-07-09T04:03:05.824Z,15.27
2018-07-09T04:05:39.856Z,15.31
2018-07-09T04:08:13.879Z,15.25
2018-07-09T04:10:47.848Z,15.28
2018-07-09T04:13:21.934Z,15.31
2018-07-09T04:15:55.888Z,15.23
2018-07-09T04:18:29.744Z,15.18
2018-07-09T04:21:03.898Z,15.22
2018-07-09T04:23:37.895Z,15.36
2018-07-09T04:26:11.925Z,15.63
2018-07-09T04:28:45.767Z,15.85
2018-07-09T04:31:19.909Z,16.06
2018-07-09T04:33:53.760Z,16.19
2018-07-09T04:36:27.719Z,16.46
2018-07-09T04:39:02.138Z,16.60
2018-07-09T04:41:36.516Z,16.79
2018-07-09T04:44:10.398Z,16.94
2018-07-09T04:46:44.329Z,17.07
2018-07-09T04:49:18.419Z,17.18
2018-07-09T04:51:52.326Z,17.03
2018-07-09T04:54:26.553Z,17.29
2018-07-09T04:57:00.652Z,17.43
2018-07-09T04:59:34.775Z,17.57
2018-07-09T05:02:08.679Z,17.72
2018-07-09T05:04:42.598Z,17.47
2018-07-09T05:28:14.326Z,18.49
2018-07-09T05:30:48.118Z,18.52
2018-07-09T05:33:22.261Z,18.34
2018-07-09T05:35:56.121Z,18.57
2018-07-09T05:38:30.221Z,18.67
2018-07-09T05:41:04.253Z,18.61
2018-07-09T05:43:38.680Z,19.06
2018-07-09T05:46:12.788Z,19.10
2018-07-09T05:48:46.792Z,19.16
2018-07-09T05:51:20.670Z,19.15
2018-07-09T05:53:54.696Z,19.13
2018-07-09T05:56:29.206Z,19.64
2018-07-09T05:59:03.140Z,19.42
2018-07-09T06:01:37.171Z,19.22
2018-07-09T06:04:11.194Z,19.34
2018-07-09T06:06:45.032Z,19.32
2018-07-09T06:09:18.909Z,19.17
2018-07-09T06:11:52.734Z,19.57
2018-07-09T06:14:26.601Z,19.57
2018-07-09T06:17:00.330Z,19.77
2018-07-09T06:19:34.347Z,19.43
2018-07-09T06:22:08.153Z,19.24
2018-07-09T06:24:42.037Z,19.58
2018-07-09T06:27:15.912Z,19.84
2018-07-09T06:29:49.876Z,20.13
2018-07-09T06:32:23.815Z,19.72
2018-07-09T06:34:57.792Z,19.55
2018-07-09T06:37:31.931Z,19.62
2018-07-09T06:39:59.923Z,19.90
2018-07-09T06:42:27.788Z,20.00
2018-07-09T06:44:55.728Z,20.08
2018-07-09T06:47:23.747Z,20.03
2018-07-09T06:49:51.610Z,19.93
2018-07-09T06:52:19.595Z,20.31
2018-07-09T06:54:47.483Z,19.94
2018-07-09T06:57:15.414Z,20.11
2018-07-09T06:59:43.376Z,20.07
2018-07-09T07:02:11.345Z,20.14
2018-07-09T07:04:39.343Z,20.65
2018-07-09T07:07:07.249Z,20.76
2018-07-09T07:09:35.169Z,20.77
2018-07-09T07:12:03.032Z,20.90
2018-07-09T07:14:30.931Z,20.37
2018-07-09T07:16:58.754Z,20.74
2018-07-09T07:19:26.560Z,20.83
2018-07-09T07:21:54.997Z,21.23
2018-07-09T07:24:22.848Z,21.45
2018-07-09T07:26:50.737Z,21.37
2018-07-09T07:29:18.573Z,21.68
2018-07-09T07:31:46.483Z,21.48
2018-07-09T07:34:14.318Z,21.74
2018-07-09T07:36:42.135Z,21.63
2018-07-09T07:39:10.021Z,22.03
2018-07-09T07:41:37.981Z,22.00
2018-07-09T07:44:05.856Z,22.35
2018-07-09T07:46:33.725Z,22.30
2018-07-09T07:49:01.603Z,21.88
2018-07-09T07:51:29.461Z,21.82
2018-07-09T07:53:57.350Z,21.87
2018-07-09T07:56:25.188Z,21.91
2018-07-09T07:58:53.182Z,22.01
2018-07-09T08:01:21.177Z,21.81
2018-07-09T08:03:49.412Z,21.98
2018-07-09T08:06:17.330Z,21.69
2018-07-09T08:08:45.166Z,22.05
2018-07-09T08:11:13.153Z,22.02
2018-07-09T08:13:41.046Z,21.99
2018-07-09T08:16:08.993Z,22.18
2018-07-09T08:18:36.906Z,22.02
2018-07-09T08:21:04.867Z,22.36
2018-07-09T08:23:32.711Z,22.50
2018-07-09T08:26:00.636Z,22.93
2018-07-09T08:28:28.468Z,22.89
2018-07-09T08:30:56.393Z,22.88
2018-07-09T08:33:24.292Z,23.51
2018-07-09T08:35:52.108Z,23.97
2018-07-09T08:38:20.074Z,24.18
2018-07-09T08:40:47.958Z,23.25
2018-07-09T08:43:16.019Z,22.87
2018-07-09T08:45:43.983Z,22.52
2018-07-09T08:48:11.797Z,22.18
2018-07-09T08:50:39.661Z,22.20
2018-07-09T08:53:07.635Z,22.53
2018-07-09T08:55:35.938Z,22.50
2018-07-09T08:58:03.844Z,22.23
2018-07-09T09:00:31.895Z,21.91
2018-07-09T09:02:59.728Z,22.11
2018-07-09T09:05:27.828Z,22.44
2018-07-09T09:07:55.707Z,22.55
2018-07-09T09:10:23.538Z,22.51
2018-07-09T09:12:51.398Z,22.72
2018-07-09T09:15:19.399Z,22.67
2018-07-09T09:17:47.618Z,22.60
2018-07-09T09:20:15.422Z,22.62
2018-07-09T09:22:43.497Z,22.93
2018-07-09T09:25:11.326Z,22.56
2018-07-09T09:27:39.183Z,22.57
2018-07-09T09:30:07.147Z,22.84
2018-07-09T09:32:35.036Z,23.49
2018-07-09T09:35:03.131Z,23.24
2018-07-09T09:37:31.199Z,23.07
2018-07-09T09:39:59.052Z,22.59
2018-07-09T09:42:26.909Z,22.70
2018-07-09T09:44:54.832Z,22.84
2018-07-09T09:47:22.674Z,22.64
2018-07-09T09:49:50.565Z,22.78
2018-07-09T09:52:18.565Z,22.86
2018-07-09T09:54:46.838Z,23.32
2018-07-09T09:57:14.706Z,22.80
2018-07-09T09:59:42.672Z,23.13
2018-07-09T10:02:12.514Z,23.51
2018-07-09T10:07:07.652Z,23.25
2018-07-09T10:09:35.584Z,23.73
2018-07-09T10:12:03.742Z,23.64
2018-07-09T10:14:31.637Z,23.57
2018-07-09T10:16:59.624Z,23.66
2018-07-09T10:19:27.493Z,23.52
2018-07-09T10:21:55.393Z,23.89
2018-07-09T10:24:23.353Z,23.96
2018-07-09T10:26:51.264Z,24.00
2018-07-09T10:29:19.233Z,23.65
2018-07-09T10:31:47.188Z,23.47
2018-07-09T10:34:15.069Z,23.36
2018-07-09T10:36:42.981Z,23.62
2018-07-09T10:39:10.856Z,23.54
2018-07-09T10:41:38.933Z,23.99
2018-07-09T10:44:06.797Z,23.88
2018-07-09T10:46:34.656Z,23.73
2018-07-09T10:49:02.516Z,23.35
2018-07-09T10:51:30.419Z,23.31
2018-07-09T10:53:58.375Z,22.96
2018-07-09T10:56:26.217Z,23.14
2018-07-09T10:58:54.106Z,23.04
2018-07-09T11:01:21.993Z,23.41
2018-07-09T11:05:14.442Z,23.61
2018-07-09T11:07:42.286Z,23.25
2018-07-09T11:10:10.334Z,23.04
2018-07-09T11:12:38.282Z,22.96
2018-07-09T11:15:06.244Z,22.86
2018-07-09T11:17:34.101Z,22.76
2018-07-09T11:20:02.023Z,22.72
2018-07-09T11:22:29.912Z,22.54
2018-07-09T11:24:57.902Z,22.83
2018-07-09T11:27:25.764Z,22.82
2018-07-09T11:29:53.640Z,22.93
2018-07-09T11:32:21.497Z,22.91
2018-07-09T11:34:49.488Z,23.16
2018-07-09T11:37:17.356Z,23.28
2018-07-09T11:39:45.171Z,23.31
2018-07-09T11:42:13.050Z,23.15
2018-07-09T11:44:40.903Z,23.18
2018-07-09T11:47:08.986Z,23.41
2018-07-09T11:49:36.887Z,23.56
2018-07-09T11:52:05.004Z,23.76
2018-07-09T11:54:32.874Z,24.62
2018-07-09T11:57:00.811Z,25.27
2018-07-09T11:59:28.693Z,25.61
2018-07-09T12:01:56.684Z,25.47
2018-07-09T12:04:24.615Z,25.92
2018-07-09T12:06:52.446Z,26.53
2018-07-09T12:09:20.333Z,27.21
2018-07-09T12:11:54.297Z,27.47
2018-07-09T12:14:22.156Z,28.05
2018-07-09T12:16:50.061Z,28.28
2018-07-09T12:19:18.010Z,27.24
2018-07-09T12:21:46.114Z,26.79
2018-07-09T12:24:13.874Z,26.30
2018-07-09T12:26:41.740Z,26.44
2018-07-09T12:29:09.704Z,27.14
2018-07-09T12:31:37.536Z,27.92
2018-07-09T12:34:05.504Z,28.28
2018-07-09T12:36:33.412Z,28.95
2018-07-09T12:39:01.253Z,29.13
2018-07-09T12:41:29.208Z,28.70
2018-07-09T12:43:57.049Z,28.70
2018-07-09T12:46:25.030Z,28.56
2018-07-09T12:48:52.955Z,28.34
2018-07-09T12:51:20.821Z,28.54
2018-07-09T12:53:48.672Z,29.13
2018-07-09T12:56:16.696Z,29.31
2018-07-09T12:58:44.549Z,28.45
2018-07-09T13:01:12.416Z,27.73
2018-07-09T13:03:40.318Z,27.48
2018-07-09T13:06:08.254Z,27.19
2018-07-09T13:08:36.086Z,26.38
2018-07-09T13:11:03.962Z,26.08
2018-07-09T13:13:31.803Z,25.82
2018-07-09T13:15:59.631Z,25.47
2018-07-09T13:18:27.570Z,25.21
2018-07-09T13:20:55.649Z,24.76
2018-07-09T13:23:23.495Z,24.16
2018-07-09T13:25:51.486Z,23.98
2018-07-09T13:28:19.498Z,23.52
2018-07-09T13:30:47.481Z,22.64
2018-07-09T13:33:15.480Z,21.73
2018-07-09T13:35:43.470Z,20.51
2018-07-09T13:38:11.344Z,19.98
2018-07-09T13:40:39.286Z,19.44
2018-07-09T13:43:07.152Z,18.59
2018-07-09T13:45:35.248Z,18.56
2018-07-09T13:48:03.468Z,18.53
2018-07-09T13:50:31.901Z,18.75
2018-07-09T13:52:59.886Z,18.97
2018-07-09T13:55:28.215Z,19.09
2018-07-09T13:57:56.173Z,19.22
2018-07-09T14:00:24.157Z,19.60
2018-07-09T14:02:52.310Z,20.16
2018-07-09T14:05:20.153Z,20.47
2018-07-09T14:07:48.164Z,20.56
2018-07-09T14:10:16.179Z,20.53
2018-07-09T14:12:44.015Z,20.47
2018-07-09T14:15:12.009Z,20.81
2018-07-09T14:17:40.364Z,21.23
2018-07-09T14:20:21.508Z,21.41
2018-07-09T14:22:49.587Z,21.27
2018-07-09T14:25:17.934Z,21.15
2018-07-09T14:27:45.764Z,21.81
2018-07-09T14:30:13.853Z,22.18
2018-07-09T14:32:42.048Z,22.10
2018-07-09T14:35:09.890Z,21.63
2018-07-09T14:37:37.762Z,21.35
2018-07-09T14:40:05.789Z,20.98
2018-07-09T14:42:33.940Z,20.78
2018-07-09T14:45:02.117Z,20.54
2018-07-09T14:47:30.291Z,20.32
2018-07-09T14:49:58.147Z,20.15
2018-07-09T14:52:26.219Z,20.08
2018-07-09T14:54:54.045Z,19.77
2018-07-09T14:57:21.897Z,19.42
2018-07-09T14:59:49.779Z,19.63
2018-07-09T15:02:17.863Z,19.64
2018-07-09T15:04:45.843Z,19.65
2018-07-09T15:07:13.705Z,19.65
2018-07-09T15:09:41.701Z,19.65
2018-07-09T15:12:09.500Z,19.57
2018-07-09T15:14:37.440Z,19.12
2018-07-09T15:17:05.536Z,19.02
2018-07-09T15:19:33.382Z,19.04
2018-07-09T15:22:01.321Z,19.03
2018-07-09T15:24:29.199Z,19.03
2018-07-09T15:26:57.025Z,19.05
2018-07-09T15:29:25.039Z,18.90
2018-07-09T15:32:04.109Z,18.79
2018-07-09T15:34:32.040Z,18.74
2018-07-09T15:36:59.891Z,18.56
2018-07-09T15:39:27.773Z,18.40
2018-07-09T15:41:55.651Z,18.16
2018-07-09T15:44:23.509Z,17.96
2018-07-09T15:46:51.362Z,17.75
2018-07-09T15:49:19.237Z,17.56
2018-07-09T15:51:47.641Z,17.42
2018-07-09T15:54:15.642Z,17.36
2018-07-09T15:56:43.564Z,17.33
2018-07-09T15:59:11.528Z,17.19
2018-07-09T16:01:39.552Z,17.10
2018-07-09T16:04:07.612Z,17.00
2018-07-09T16:06:35.488Z,17.03
2018-07-09T16:09:04.489Z,16.95
2018-07-09T16:11:32.614Z,16.92
2018-07-09T16:14:00.615Z,16.81
2018-07-09T16:16:28.440Z,16.75
2018-07-09T16:18:56.391Z,16.75
2018-07-09T16:21:24.300Z,16.70
2018-07-09T16:23:52.276Z,16.69
2018-07-09T16:26:20.181Z,16.72
2018-07-09T16:28:48.366Z,16.78
2018-07-09T16:31:16.224Z,16.76
2018-07-09T16:33:44.133Z,16.73
2018-07-09T16:36:12.177Z,16.79
2018-07-09T16:38:40.072Z,16.66
2018-07-09T16:41:08.284Z,16.66
2018-07-09T16:43:36.435Z,16.74
2018-07-09T16:46:04.309Z,16.70
2018-07-09T16:48:32.176Z,16.72
2018-07-09T16:51:00.051Z,16.57
2018-07-09T16:53:27.907Z,16.61
2018-07-09T16:55:55.936Z,16.57
2018-07-09T16:58:23.767Z,16.75
2018-07-09T17:00:51.734Z,16.77
2018-07-09T17:03:19.763Z,16.65
2018-07-09T17:05:47.750Z,16.73
2018-07-09T17:08:15.835Z,16.72
2018-07-09T17:10:43.748Z,16.74
2018-07-09T17:13:12.052Z,16.81
2018-07-09T17:15:40.056Z,16.79
2018-07-09T17:18:08.540Z,16.64
2018-07-09T17:20:36.695Z,16.64
2018-07-09T17:23:04.845Z,16.63
2018-07-09T17:25:32.877Z,16.58
2018-07-09T17:28:00.852Z,16.60
2018-07-09T17:30:28.743Z,16.59
2018-07-09T17:32:56.972Z,16.56
2018-07-09T17:35:24.887Z,16.55
2018-07-09T17:37:53.132Z,16.29
2018-07-09T17:40:21.175Z,16.47
2018-07-09T17:42:49.332Z,16.46
2018-07-09T17:45:18.664Z,16.38
2018-07-09T17:47:47.619Z,16.38
2018-07-09T17:50:16.553Z,16.35
2018-07-09T17:52:44.411Z,16.33
2018-07-09T17:55:12.672Z,16.32
2018-07-09T17:57:41.113Z,16.32
2018-07-09T18:00:09.072Z,16.34
2018-07-09T18:02:43.359Z,16.29
2018-07-09T18:05:11.301Z,16.26
2018-07-09T18:07:39.472Z,16.31
2018-07-09T18:10:08.125Z,16.29
2018-07-09T18:12:36.127Z,16.17
2018-07-09T18:15:04.564Z,16.07
2018-07-09T18:17:32.672Z,16.09
2018-07-09T18:20:00.572Z,15.89
2018-07-09T18:22:31.934Z,16.00
2018-07-09T18:24:59.928Z,15.95
2018-07-09T18:27:28.006Z,15.97
2018-07-09T18:29:56.176Z,15.90
2018-07-09T18:32:24.242Z,15.90
2018-07-09T18:34:52.664Z,15.81
2018-07-09T18:37:20.618Z,15.66
2018-07-09T18:39:48.679Z,15.63
2018-07-09T18:42:16.644Z,15.60
2018-07-09T18:44:44.562Z,15.23
2018-07-09T18:47:12.545Z,15.14
2018-07-09T18:49:40.663Z,15.22
2018-07-09T18:52:08.745Z,15.33
2018-07-09T18:54:36.958Z,15.48
2018-07-09T18:57:05.826Z,15.59
2018-07-09T18:59:36.560Z,15.63
2018-07-09T19:02:05.302Z,15.56
2018-07-09T19:04:35.698Z,15.62
2018-07-09T19:07:08.532Z,15.56
2018-07-09T19:09:37.064Z,15.54
2018-07-09T19:12:06.891Z,15.52
2018-07-09T19:14:39.861Z,15.60
2018-07-09T19:18:25.405Z,15.63
2018-07-09T19:21:38.414Z,15.49
2018-07-09T19:24:06.344Z,15.36
2018-07-09T19:26:33.229Z,15.20
2018-07-09T19:28:59.839Z,15.11
2018-07-09T19:31:26.464Z,15.07
2018-07-09T19:33:53.826Z,15.11
2018-07-09T19:36:20.911Z,15.25
2018-07-09T19:38:47.637Z,15.09
2018-07-09T19:41:15.239Z,14.84
2018-07-09T19:43:42.403Z,14.72
2018-07-09T19:46:08.967Z,14.61
2018-07-09T19:48:35.602Z,14.48
2018-07-09T19:51:02.293Z,14.54
2018-07-09T19:53:28.908Z,14.66
2018-07-09T19:55:55.562Z,14.82
2018-07-09T19:58:22.264Z,15.03
2018-07-09T20:00:54.981Z,14.97
2018-07-09T20:03:27.646Z,15.10
2018-07-09T20:06:00.230Z,15.20
2018-07-09T20:08:38.137Z,15.24
2018-07-09T20:11:16.204Z,15.01
2018-07-09T20:14:07.248Z,15.16
2018-07-09T20:16:45.380Z,15.07
2018-07-09T20:19:18.225Z,14.96
2018-07-09T20:21:50.952Z,14.82
2018-07-09T20:24:23.673Z,14.88
2018-07-09T20:26:56.290Z,15.10
2018-07-09T20:29:29.016Z,15.25
2018-07-09T20:32:01.732Z,15.12
2018-07-09T20:34:34.366Z,15.17
2018-07-09T20:37:07.074Z,15.24
2018-07-09T20:39:39.736Z,15.18
2018-07-09T20:42:12.414Z,15.21
2018-07-09T20:44:45.193Z,15.23
2018-07-09T20:47:17.809Z,15.14
2018-07-09T20:49:50.396Z,15.13
2018-07-09T20:52:23.004Z,15.13
2018-07-09T20:54:55.621Z,15.14
2018-07-09T20:57:28.140Z,15.20
2018-07-09T21:00:00.937Z,15.27
2018-07-09T21:02:33.515Z,15.20
2018-07-09T21:05:06.116Z,14.80
2018-07-09T21:07:38.819Z,14.91
2018-07-09T21:10:11.401Z,15.01
2018-07-09T21:12:49.607Z,15.02
2018-07-09T21:15:22.910Z,15.18
2018-07-09T21:17:55.460Z,15.18
2018-07-09T21:20:28.227Z,15.18
2018-07-09T21:23:00.812Z,15.22
2018-07-09T21:25:33.433Z,15.19
2018-07-09T21:28:06.145Z,15.22
2018-07-09T21:30:38.875Z,15.18
2018-07-09T21:33:11.548Z,15.16
2018-07-09T21:35:44.174Z,14.81
2018-07-09T21:38:16.842Z,14.84
2018-07-09T21:40:49.414Z,15.00
2018-07-09T21:43:22.056Z,14.93
2018-07-09T21:45:54.884Z,14.83
2018-07-09T21:48:29.779Z,14.80
2018-07-09T21:51:00.658Z,14.75
2018-07-09T21:53:33.435Z,14.86
2018-07-09T21:56:06.001Z,14.68
2018-07-09T21:58:38.553Z,14.80
2018-07-09T22:01:11.260Z,14.72
2018-07-09T22:03:43.944Z,14.82
2018-07-09T22:06:16.662Z,14.75
2018-07-09T22:08:49.208Z,14.65
2018-07-09T22:11:21.767Z,14.76
2018-07-09T22:13:54.343Z,14.74
2018-07-09T22:16:27.071Z,14.56
2018-07-09T22:18:59.687Z,14.63
2018-07-09T22:21:32.416Z,14.64
2018-07-09T22:24:05.077Z,14.66
2018-07-09T22:26:37.746Z,14.72
2018-07-09T22:29:10.232Z,14.71
2018-07-09T22:31:44.225Z,14.67
2018-07-09T22:34:18.128Z,14.68
2018-07-09T22:36:52.190Z,14.65
2018-07-09T22:39:26.172Z,14.68
2018-07-09T22:42:00.554Z,14.73
2018-07-09T22:44:34.360Z,14.68
2018-07-09T22:47:08.416Z,14.67
2018-07-09T22:49:42.804Z,14.72
2018-07-09T22:52:21.864Z,14.65
2018-07-09T22:55:06.849Z,14.59
2018-07-09T22:57:40.772Z,14.68
2018-07-09T23:00:16.510Z,14.67
2018-07-09T23:03:01.393Z,14.58
2018-07-09T23:05:35.355Z,14.51
2018-07-09T23:08:09.604Z,14.57
2018-07-09T23:13:20.121Z,14.49
2018-07-09T23:17:02.161Z,14.43
2018-07-09T23:21:50.679Z,14.37
2018-07-09T23:24:24.033Z,14.35
2018-07-09T23:26:57.061Z,14.28
2018-07-09T23:29:29.629Z,14.21
2018-07-09T23:32:02.310Z,14.32
2018-07-09T23:34:34.956Z,14.27
2018-07-09T23:37:07.685Z,14.23
2018-07-09T23:39:40.258Z,14.25
2018-07-09T23:42:13.011Z,14.09
2018-07-09T23:44:45.519Z,14.06
2018-07-09T23:47:18.118Z,14.12
2018-07-09T23:49:50.893Z,14.09
2018-07-09T23:52:23.562Z,14.06
2018-07-09T23:54:56.160Z,14.00
2018-07-09T23:59:47.887Z,13.95
